Terminal Aerodrome Forecast
Issued by NWS

Home | Current Version | Previous Version | Text Only | Print | Product List | Glossary On
Versions: 1 2 3 4 5 6 7 8 9 10 11 12 13 14 15 16 17 18 19 20 21
000
FTUS43 KDTX 311311 AAA
TAFPTK
TAF AMD
KPTK 311311Z 3113/0112 36005KT 3SM BR SCT003 OVC005
     FM311400 36006KT 5SM BR OVC008
     FM311500 36008KT P6SM BKN015 BKN040
     FM311700 36009KT P6SM BKN022 BKN040
     FM311900 35009KT P6SM BKN040
     FM312100 36009KT P6SM SCT045
     FM010200 34006KT P6SM SCT035
     FM011000 35008KT P6SM BKN022=

USA.gov is the U.S. government's official web portal to all federal, state and local government web resources and services.